Inhambane Airport

Airport
ICAO code: 
FQIN
IATA Code: 
INH
Summary
ICAO Region: 
AFI
Territory: 
Location: 
Inhambane,
Serving: 
Inhambane
Elevation: 
30 ft
Coordinates: 
Aerial View: 
23° 52' 34.709" S, 35° 24' 29.66" E
Metar
Observation
FQIN 061100Z 06010KT 9999 FEW020 33/24 Q1013
Station
Inhambane
Date/Time
2021-12-06 11:00:00
Wind direction
60°
Wind speed
10 kts
Lowest cloud amount
few clouds
Temperature
33°C
Dew point
24°C
Humidity
59%
QNH
1013 hPa
Weather condition
n/a

Runways

Designator Length Width Surface Rops
6/24 800 30 SAN No/No
16/34 1500 30 ASP No/No
Airport map: 
Aerial View: 

SKYbrary Partners:

Safety knowledge contributed by: